Time;durP1;ratioP1;P1;durP2;ratioP2;P2;SDS_P1;SDS_P2;PMS_P1;PMS_P2;Temp;Humidity;BMP_temperature;BMP_pressure;BME280_temperature;BME280_humidity;BME280_pressure;Samples;Min_cycle;Max_cycle;Signal;HPM_P1;HPM_P2
2023/09/07 00:02:14;;;;;;;5.55;3.63;;;18.90;63.90;;;20.78;47.73;97960.13;5020951;28;20046;-61
2023/09/07 00:04:42;;;;;;;3.63;3.03;;;18.90;63.50;;;20.74;47.83;97949.94;5018424;28;20412;-61
2023/09/07 00:07:11;;;;;;;3.92;3.30;;;18.90;63.50;;;20.74;47.79;97953.47;5017248;28;20417;-61
2023/09/07 00:09:39;;;;;;;6.10;3.45;;;18.90;63.30;;;20.72;47.98;97954.75;5017932;28;20046;-61
2023/09/07 00:12:06;;;;;;;5.00;3.22;;;19.00;63.20;;;20.70;47.92;97959.53;5018117;28;20053;-61
2023/09/07 00:14:34;;;;;;;4.93;3.95;;;18.90;63.10;;;20.68;47.99;97953.53;5020575;28;20058;-61
2023/09/07 00:17:02;;;;;;;4.80;2.85;;;18.80;63.10;;;20.65;47.73;97958.31;5020257;28;20137;-61
2023/09/07 00:19:32;;;;;;;4.53;3.08;;;18.80;64.30;;;20.63;48.03;97963.13;5019034;28;20048;-60
2023/09/07 00:21:59;;;;;;;4.00;3.15;;;18.80;63.20;;;20.63;47.71;97956.91;5018218;28;20049;-60
2023/09/07 00:24:27;;;;;;;4.68;3.33;;;18.80;63.20;;;20.62;47.97;97956.03;5019264;28;20073;-61
2023/09/07 00:26:54;;;;;;;8.90;5.03;;;18.80;63.00;;;20.61;47.70;97950.88;5036325;28;20037;-61
2023/09/07 00:29:22;;;;;;;3.60;3.30;;;18.80;63.00;;;20.59;47.95;97948.38;5036590;27;20049;-61
2023/09/07 00:31:50;;;;;;;4.97;3.00;;;18.80;63.00;;;20.57;47.99;97947.75;5022698;28;20052;-60
2023/09/07 00:34:17;;;;;;;5.68;3.75;;;18.80;62.90;;;20.56;47.81;97947.97;5018801;28;20061;-60
2023/09/07 00:36:45;;;;;;;4.03;3.17;;;18.80;62.80;;;20.54;47.77;97948.16;5016894;28;20448;-61
2023/09/07 00:39:12;;;;;;;4.70;3.53;;;18.80;63.00;;;20.53;47.78;97948.38;5019088;28;20521;-60
2023/09/07 00:41:40;;;;;;;4.00;3.40;;;18.70;62.70;;;20.50;47.98;97949.66;5021017;28;20052;-61
2023/09/07 00:44:08;;;;;;;4.88;3.10;;;18.80;62.60;;;20.50;48.06;97955.06;5020824;28;20424;-61
2023/09/07 00:46:36;;;;;;;3.95;3.03;;;18.70;62.90;;;20.48;47.56;97949.03;5016462;28;20440;-61
2023/09/07 00:49:04;;;;;;;5.30;3.63;;;18.70;62.80;;;20.46;47.89;97949.25;5026022;28;20054;-60
2023/09/07 00:51:33;;;;;;;3.75;3.13;;;18.70;62.80;;;20.43;47.75;97948.84;5019212;28;20060;-61
2023/09/07 00:54:01;;;;;;;4.82;3.22;;;18.60;62.80;;;20.41;47.62;97951.81;5035606;28;20420;-60
2023/09/07 00:56:29;;;;;;;3.80;3.20;;;18.60;62.70;;;20.39;47.93;97945.75;5018881;28;20053;-60
2023/09/07 00:58:59;;;;;;;4.75;3.47;;;18.60;62.70;;;20.38;47.89;97948.69;5007117;28;20041;-60
2023/09/07 01:01:27;;;;;;;6.35;3.17;;;18.60;62.80;;;20.36;47.57;97948.91;5002962;28;20041;-61
2023/09/07 01:03:56;;;;;;;3.40;2.90;;;18.60;62.70;;;20.34;47.94;97947.47;5002386;28;20042;-61
2023/09/07 01:06:32;;;;;;;3.58;3.00;;;18.50;63.10;;;20.31;48.12;97945.19;5018708;28;20523;-60
2023/09/07 01:09:14;;;;;;;4.10;3.08;;;18.50;63.50;;;20.29;48.33;97950.81;5015732;28;20049;-61
2023/09/07 01:11:43;;;;;;;4.47;3.30;;;18.50;63.70;;;20.25;47.97;97942.28;5004805;28;20076;-60
2023/09/07 01:14:11;;;;;;;6.05;3.10;;;18.50;63.50;;;20.24;48.37;97942.53;5113129;27;20049;-61
2023/09/07 01:16:41;;;;;;;4.78;3.00;;;18.50;63.60;;;20.22;47.92;97940.03;5020171;28;20045;-61
2023/09/07 01:19:09;;;;;;;4.60;3.15;;;18.50;63.50;;;20.22;48.23;97933.78;5021916;28;20050;-61
2023/09/07 01:21:38;;;;;;;3.55;3.05;;;18.50;63.40;;;20.21;47.86;97937.56;5023843;28;20049;-61
2023/09/07 01:24:09;;;;;;;4.20;3.10;;;18.40;63.20;;;20.20;48.07;97938.59;5021807;28;20053;-60
2023/09/07 01:26:38;;;;;;;5.35;3.15;;;18.40;63.20;;;20.19;48.01;97939.66;5002945;28;20325;-61
2023/09/07 01:29:08;;;;;;;4.65;3.15;;;18.40;63.10;;;20.18;48.01;97938.81;5020972;28;20049;-61
2023/09/07 01:31:37;;;;;;;3.78;3.38;;;18.40;63.10;;;20.17;48.05;97939.03;5017386;28;20054;-60
2023/09/07 01:34:06;;;;;;;3.67;3.33;;;18.40;63.10;;;20.14;48.07;97934.03;5018388;28;20049;-61
2023/09/07 01:36:34;;;;;;;4.78;3.55;;;18.30;63.10;;;20.12;48.02;97930.72;5025208;28;20152;-61
2023/09/07 01:39:05;;;;;;;3.90;3.30;;;18.30;63.40;;;20.10;48.19;97930.13;5019093;28;20057;-61
2023/09/07 01:41:34;;;;;;;5.20;3.42;;;18.30;63.70;;;20.09;48.27;97931.19;5000625;28;20502;-61
2023/09/07 01:44:02;;;;;;;3.97;3.20;;;18.30;63.60;;;20.08;48.07;97932.22;5017870;28;20531;-61
2023/09/07 01:46:30;;;;;;;4.25;3.40;;;18.30;63.50;;;20.04;48.12;97929.91;5035475;28;20041;-61
2023/09/07 01:48:57;;;;;;;3.85;3.08;;;18.30;63.50;;;20.03;48.35;97932.88;5013396;28;20045;-61
2023/09/07 01:51:27;;;;;;;4.80;3.50;;;18.30;63.40;;;20.03;48.38;97936.38;5010726;28;20064;-61
2023/09/07 01:53:55;;;;;;;4.22;3.55;;;18.30;63.60;;;20.02;48.44;97933.88;5002139;28;20041;-61
2023/09/07 01:56:23;;;;;;;4.40;3.42;;;18.30;63.70;;;19.99;48.56;97935.16;5017728;28;20048;-61
2023/09/07 01:58:51;;;;;;;4.93;3.40;;;18.30;64.30;;;19.99;48.72;97940.56;5020127;28;20050;-62
2023/09/07 02:01:36;;;;;;;4.57;3.45;;;18.30;64.50;;;19.98;48.73;97938.88;5034210;28;20045;-61
2023/09/07 02:04:04;;;;;;;4.22;2.90;;;18.20;64.50;;;19.98;48.82;97940.78;5005857;28;20053;-61
2023/09/07 02:06:32;;;;;;;4.88;4.10;;;18.20;64.30;;;19.96;48.61;97940.97;5033403;28;20057;-61
2023/09/07 02:09:00;;;;;;;3.83;3.30;;;18.20;64.20;;;19.94;48.66;97934.97;5021439;28;20042;-61
2023/09/07 02:11:27;;;;;;;3.92;3.20;;;18.20;64.20;;;19.93;48.92;97927.06;5001924;28;20054;-61
2023/09/07 02:13:55;;;;;;;5.70;3.72;;;18.20;64.40;;;19.90;48.61;97935.63;5027859;28;20048;-61
2023/09/07 02:16:23;;;;;;;3.22;2.92;;;18.10;64.60;;;19.87;48.67;97934.16;5001748;28;20057;-61
2023/09/07 02:19:00;;;;;;;4.80;4.05;;;18.10;65.00;;;19.86;48.75;97930.63;5014986;28;20052;-61
2023/09/07 02:21:28;;;;;;;4.03;3.45;;;18.10;65.00;;;19.85;48.83;97931.69;5033089;28;20042;-60
2023/09/07 02:23:55;;;;;;;4.03;3.58;;;18.00;65.00;;;19.83;48.94;97936.47;5017998;28;20041;-61
2023/09/07 02:26:23;;;;;;;5.13;3.55;;;18.00;65.10;;;19.81;49.27;97932.31;5018488;28;20045;-60
2023/09/07 02:28:51;;;;;;;4.93;4.07;;;18.00;65.20;;;19.80;49.10;97933.38;5026280;28;20041;-61
2023/09/07 02:31:19;;;;;;;5.25;3.45;;;18.00;65.00;;;19.80;49.10;97938.78;5018517;28;20053;-61
2023/09/07 02:33:47;;;;;;;4.57;3.53;;;18.00;64.90;;;19.78;49.23;97935.47;5031262;28;20425;-61
2023/09/07 02:36:15;;;;;;;5.07;4.32;;;18.00;65.10;;;19.78;49.06;97936.28;5016002;28;20390;-61
2023/09/07 02:38:42;;;;;;;5.15;4.25;;;18.00;65.20;;;19.76;49.39;97930.25;5021991;28;20073;-61
2023/09/07 02:41:10;;;;;;;5.90;4.45;;;18.00;65.60;;;19.75;49.50;97931.28;5030963;28;20054;-61
2023/09/07 02:43:38;;;;;;;5.85;5.13;;;18.00;65.80;;;19.73;49.57;97933.38;4999806;28;20060;-61
2023/09/07 02:46:06;;;;;;;6.60;4.57;;;17.90;66.20;;;19.70;49.80;97928.38;5019528;28;20420;-61
2023/09/07 02:48:34;;;;;;;6.53;5.20;;;17.90;66.50;;;19.65;49.77;97926.31;5000770;28;20042;-61
2023/09/07 02:51:02;;;;;;;7.00;5.28;;;17.80;66.70;;;19.61;49.83;97922.38;5029318;28;20045;-61
2023/09/07 02:53:30;;;;;;;6.43;4.80;;;17.80;66.80;;;19.56;49.76;97922.19;5016746;28;20045;-61
2023/09/07 02:55:58;;;;;;;5.82;5.03;;;17.70;67.20;;;19.51;50.05;97930.09;5016076;28;20083;-61
2023/09/07 02:58:26;;;;;;;6.45;5.45;;;17.70;67.30;;;19.48;50.10;97933.19;5031267;28;20049;-61
2023/09/07 03:00:55;;;;;;;7.07;4.82;;;17.70;67.50;;;19.45;50.05;97926.38;5025678;28;20042;-61
2023/09/07 03:03:24;;;;;;;6.57;4.80;;;17.70;67.40;;;19.43;50.06;97928.44;5028744;28;20049;-61
2023/09/07 03:05:53;;;;;;;6.43;5.05;;;17.60;67.60;;;19.40;50.31;97925.34;5014975;28;20403;-61
2023/09/07 03:08:23;;;;;;;4.75;4.22;;;17.60;67.70;;;19.40;50.19;97919.94;5056057;28;20119;-62
2023/09/07 03:10:51;;;;;;;8.15;5.30;;;17.60;67.60;;;19.40;50.25;97926.16;5115467;27;20053;-61
2023/09/07 03:13:19;;;;;;;5.38;4.28;;;17.60;67.70;;;19.40;50.21;97928.03;5021939;28;20105;-61
2023/09/07 03:15:46;;;;;;;7.30;5.13;;;17.60;67.50;;;19.41;50.40;97918.91;5021152;28;20050;-61
2023/09/07 03:18:14;;;;;;;7.25;4.78;;;17.70;67.80;;;19.40;50.40;97922.63;5027348;27;20053;-61
2023/09/07 03:20:43;;;;;;;5.32;4.53;;;17.70;67.60;;;19.39;50.44;97921.81;5002881;28;20497;-61
2023/09/07 03:23:11;;;;;;;5.32;4.25;;;17.60;67.70;;;19.38;50.38;97909.34;5022401;28;20061;-61
2023/09/07 03:25:38;;;;;;;6.85;4.68;;;17.60;67.80;;;19.38;50.66;97914.75;5036156;28;20497;-61
2023/09/07 03:28:07;;;;;;;4.47;4.07;;;17.70;67.80;;;19.37;50.57;97921.19;5012593;28;20057;-61
2023/09/07 03:30:36;;;;;;;5.88;4.40;;;17.60;67.60;;;19.39;50.72;97912.91;5020120;28;20053;-61
2023/09/07 03:33:05;;;;;;;6.07;4.82;;;17.70;67.90;;;19.39;50.70;97915.59;5001222;28;20424;-61
2023/09/07 03:35:33;;;;;;;6.45;4.90;;;17.70;67.80;;;19.37;50.76;97906.88;5017377;28;20053;-61
2023/09/07 03:38:01;;;;;;;6.05;4.88;;;17.70;67.90;;;19.39;50.83;97912.91;5015196;28;20528;-61
2023/09/07 03:40:28;;;;;;;6.72;5.35;;;17.70;67.80;;;19.38;50.67;97909.34;5026432;28;20064;-61
2023/09/07 03:42:56;;;;;;;6.38;5.35;;;17.70;67.80;;;19.39;50.69;97912.91;5021965;28;20042;-61
2023/09/07 03:45:25;;;;;;;8.65;4.60;;;17.70;67.80;;;19.36;50.90;97908.72;5036368;28;20052;-61
2023/09/07 03:47:53;;;;;;;6.05;5.15;;;17.70;68.20;;;19.36;50.96;97907.91;5001168;28;20044;-61
2023/09/07 03:50:21;;;;;;;5.20;4.45;;;17.60;68.20;;;19.37;50.90;97910.41;5041430;27;20295;-61
2023/09/07 03:52:49;;;;;;;6.65;5.32;;;17.60;68.40;;;19.38;50.95;97912.03;5028145;28;20064;-61
2023/09/07 03:55:17;;;;;;;5.97;5.00;;;17.70;68.30;;;19.38;50.94;97912.03;5006103;28;20524;-62
2023/09/07 03:57:46;;;;;;;10.43;5.13;;;17.70;68.50;;;19.38;50.86;97912.03;5020125;28;20046;-61
2023/09/07 04:00:14;;;;;;;5.22;4.68;;;17.70;68.30;;;19.37;51.07;97915.81;5020637;28;20052;-61
2023/09/07 04:02:45;;;;;;;5.85;5.13;;;17.70;68.50;;;19.38;51.07;97914.75;5034582;28;20046;-61
2023/09/07 04:05:14;;;;;;;5.00;4.45;;;17.70;68.50;;;19.38;51.21;97905.81;5008331;28;20068;-61
2023/09/07 04:07:42;;;;;;;8.00;4.88;;;17.70;68.90;;;19.38;51.25;97906.66;5019519;28;20050;-62
2023/09/07 04:10:09;;;;;;;5.22;4.43;;;17.70;68.80;;;19.40;51.41;97901.84;5021082;28;20041;-61
2023/09/07 04:12:37;;;;;;;6.00;4.50;;;17.80;68.80;;;19.42;51.50;97904.34;5020249;28;20401;-61
2023/09/07 04:15:06;;;;;;;5.35;4.85;;;17.80;69.00;;;19.44;51.70;97903.13;5027058;27;20527;-61
2023/09/07 04:17:40;;;;;;;4.38;3.92;;;17.90;69.10;;;19.49;51.76;97899.78;4995820;28;20421;-61
2023/09/07 04:20:11;;;;;;;9.07;4.13;;;18.00;68.70;;;19.52;51.61;97904.72;5016229;28;20149;-61
2023/09/07 04:22:40;;;;;;;7.18;4.90;;;18.10;68.50;;;19.56;51.88;97910.53;5024845;28;20509;-61
2023/09/07 04:25:08;;;;;;;5.38;4.47;;;18.10;68.50;;;19.58;51.80;97908.47;5025133;28;20076;-61
2023/09/07 04:27:36;;;;;;;5.63;4.00;;;18.20;68.10;;;19.60;51.67;97909.06;5047758;27;20054;-61
2023/09/07 04:30:06;;;;;;;7.03;4.68;;;18.20;68.00;;;19.64;51.74;97904.94;5054934;28;20516;-61
2023/09/07 04:32:34;;;;;;;5.82;4.45;;;18.20;68.00;;;19.68;51.63;97906.16;5011447;28;20045;-61
2023/09/07 04:35:03;;;;;;;6.03;4.20;;;18.30;67.80;;;19.72;51.64;97904.72;5003446;28;20049;-61
2023/09/07 04:37:31;;;;;;;4.65;4.10;;;18.30;67.80;;;19.74;51.49;97905.34;5021260;28;20048;-61
2023/09/07 04:39:59;;;;;;;5.43;4.82;;;18.40;67.50;;;19.74;51.53;97907.22;5018019;28;20042;-62
2023/09/07 04:42:27;;;;;;;5.70;5.00;;;18.40;67.30;;;19.77;51.57;97909.47;5023436;28;20049;-62
2023/09/07 04:44:55;;;;;;;7.53;4.32;;;18.40;67.30;;;19.77;51.52;97913.00;5019566;28;20448;-61
2023/09/07 04:47:22;;;;;;;5.18;4.68;;;18.30;67.40;;;19.76;51.38;97907.84;5019747;28;20049;-61
2023/09/07 04:49:53;;;;;;;5.22;4.60;;;18.30;67.60;;;19.73;51.24;97913.66;5036682;28;20528;-61
2023/09/07 04:52:22;;;;;;;6.13;4.93;;;18.20;67.80;;;19.70;51.33;97914.03;5005840;28;20050;-61
2023/09/07 04:54:49;;;;;;;8.07;4.70;;;18.10;68.30;;;19.66;51.51;97922.56;5018764;28;20050;-61
2023/09/07 04:57:18;;;;;;;6.22;4.57;;;18.10;68.40;;;19.63;51.43;97919.47;5003710;28;20049;-61
2023/09/07 04:59:47;;;;;;;5.85;4.82;;;18.00;68.60;;;19.63;51.77;97924.88;5026426;28;20050;-61
2023/09/07 05:02:15;;;;;;;7.28;5.13;;;18.00;69.80;;;19.60;51.55;97923.44;5016928;28;20048;-61
2023/09/07 05:04:43;;;;;;;6.28;5.20;;;18.00;69.10;;;19.58;51.87;97927.38;5016529;28;20050;-61
2023/09/07 05:07:12;;;;;;;8.98;5.50;;;17.90;69.20;;;19.56;51.83;97927.59;5019461;28;20057;-61
2023/09/07 05:09:40;;;;;;;7.20;5.03;;;17.90;69.60;;;19.54;51.94;97918.88;5019261;28;20041;-61
2023/09/07 05:12:08;;;;;;;6.88;4.55;;;17.90;69.70;;;19.52;52.21;97928.22;5003604;28;20053;-61
2023/09/07 05:14:36;;;;;;;7.68;4.88;;;17.90;70.00;;;19.52;52.19;97923.63;5018880;28;20049;-61
2023/09/07 05:17:04;;;;;;;6.18;5.40;;;18.00;70.00;;;19.52;52.33;97926.34;5028163;28;20551;-61
2023/09/07 05:19:32;;;;;;;5.97;4.93;;;18.00;69.90;;;19.53;52.35;97925.31;5018842;28;20053;-61
2023/09/07 05:21:59;;;;;;;6.50;5.78;;;18.00;69.90;;;19.52;52.35;97926.34;5017507;28;20241;-61
2023/09/07 05:24:27;;;;;;;8.73;5.10;;;18.10;69.90;;;19.54;52.51;97928.84;5013254;28;20045;-61
2023/09/07 05:26:54;;;;;;;5.75;5.13;;;18.10;69.80;;;19.54;52.69;97929.69;5018438;28;20041;-61
2023/09/07 05:29:22;;;;;;;7.43;5.00;;;18.10;70.00;;;19.56;52.51;97938.41;5035092;27;20042;-61
2023/09/07 05:31:50;;;;;;;7.35;5.60;;;18.10;70.10;;;19.58;52.55;97939.00;5023642;28;20058;-61
2023/09/07 05:34:18;;;;;;;6.38;5.63;;;18.10;70.20;;;19.60;52.69;97936.09;5054576;28;20649;-61
2023/09/07 05:36:48;;;;;;;7.00;6.05;;;18.10;70.30;;;19.61;52.67;97943.97;5002651;28;20050;-61
2023/09/07 05:39:15;;;;;;;6.53;5.65;;;18.10;70.70;;;19.62;52.56;97942.94;5034868;28;20420;-61
2023/09/07 05:41:43;;;;;;;7.88;5.03;;;18.00;70.80;;;19.63;52.66;97949.16;5017789;28;20049;-62
2023/09/07 05:44:11;;;;;;;6.25;5.18;;;18.00;71.00;;;19.62;52.90;97942.94;5016873;28;20050;-62
2023/09/07 05:46:38;;;;;;;6.82;5.90;;;18.00;71.20;;;19.62;52.97;97948.34;5028193;28;20048;-60
2023/09/07 05:49:06;;;;;;;7.80;6.10;;;18.00;71.60;;;19.62;53.21;97942.13;5017274;28;20046;-61
2023/09/07 05:51:34;;;;;;;6.95;5.68;;;18.00;71.80;;;19.61;53.10;97946.69;5025601;28;20436;-61
2023/09/07 05:54:01;;;;;;;9.32;6.25;;;18.00;71.90;;;19.62;53.27;97950.22;5001799;28;20060;-61
2023/09/07 05:56:30;;;;;;;7.18;6.15;;;18.10;72.10;;;19.63;53.41;97955.41;5004351;28;20420;-59
2023/09/07 05:58:57;;;;;;;5.75;5.15;;;18.10;72.20;;;19.63;53.62;97949.16;5009116;28;20041;-60
2023/09/07 06:01:26;;;;;;;6.72;5.40;;;18.10;72.10;;;19.66;53.65;97948.75;5020260;28;20052;-60
2023/09/07 06:03:54;;;;;;;5.97;5.38;;;18.20;72.30;;;19.70;53.30;97949.13;5026220;28;20047;-59
2023/09/07 06:06:22;;;;;;;7.10;5.28;;;18.20;72.00;;;19.73;53.71;97949.56;5010153;28;20540;-59
2023/09/07 06:08:50;;;;;;;8.00;6.30;;;18.20;72.10;;;19.77;53.60;97944.59;5035353;28;20037;-60
2023/09/07 06:11:17;;;;;;;6.57;5.70;;;18.30;72.30;;;19.80;53.44;97949.56;5031844;28;20420;-60
2023/09/07 06:13:46;;;;;;;7.38;5.68;;;18.30;72.20;;;19.83;53.41;97946.44;5014808;28;20501;-62
2023/09/07 06:16:14;;;;;;;7.00;5.22;;;18.30;72.10;;;19.86;53.50;97948.72;5032781;28;20042;-61
2023/09/07 06:18:42;;;;;;;6.75;4.95;;;18.40;72.00;;;19.89;53.54;97945.59;5024603;28;20048;-60
2023/09/07 06:21:10;;;;;;;7.10;4.85;;;18.40;71.80;;;19.93;53.55;97951.38;5018101;28;20042;-60
2023/09/07 06:23:37;;;;;;;7.70;5.13;;;18.50;71.70;;;19.96;53.50;97946.38;5020467;28;20044;-60
2023/09/07 06:26:05;;;;;;;7.60;5.60;;;18.50;71.50;;;20.00;53.55;97941.38;5016888;28;20046;-60
2023/09/07 06:28:33;;;;;;;6.97;5.13;;;18.60;71.30;;;20.03;53.45;97947.19;5019831;28;20049;-61
2023/09/07 06:31:01;;;;;;;8.07;5.25;;;18.70;71.40;;;20.06;53.35;97949.47;5017161;28;20037;-60
2023/09/07 06:33:29;;;;;;;7.88;5.25;;;18.70;71.20;;;20.11;53.26;97961.53;5039767;28;20056;-60
2023/09/07 06:36:01;;;;;;;11.18;5.80;;;18.70;71.10;;;20.13;53.41;97957.53;5029097;28;20054;-61
2023/09/07 06:38:28;;;;;;;7.90;5.68;;;18.70;70.70;;;20.15;53.13;97952.75;5020051;28;20056;-61
2023/09/07 06:40:57;;;;;;;6.55;5.13;;;18.80;70.70;;;20.17;53.07;97950.66;5035675;28;20583;-60
2023/09/07 06:43:25;;;;;;;7.43;5.30;;;18.80;70.70;;;20.19;53.32;97959.38;5008026;28;20044;-60
2023/09/07 06:45:54;;;;;;;7.40;5.60;;;18.80;70.50;;;20.20;53.24;97961.06;5022479;28;20053;-60
2023/09/07 06:48:22;;;;;;;6.20;5.40;;;18.90;70.40;;;20.24;53.40;97959.56;5027513;28;20046;-60
2023/09/07 06:50:50;;;;;;;8.57;5.53;;;18.90;70.40;;;20.28;52.97;97968.09;5027434;28;20040;-61
2023/09/07 06:53:17;;;;;;;10.90;6.38;;;18.90;70.20;;;20.32;53.24;97969.31;5029349;28;20046;-61
2023/09/07 06:55:45;;;;;;;10.80;5.80;;;19.00;70.30;;;20.32;53.30;97965.78;5030670;28;20050;-61
2023/09/07 06:58:13;;;;;;;7.05;5.07;;;19.00;70.30;;;20.35;53.20;97974.28;5019445;28;20044;-61
2023/09/07 07:00:40;;;;;;;9.48;6.18;;;19.00;70.20;;;20.39;53.17;97972.78;5019282;28;20050;-61
2023/09/07 07:03:08;;;;;;;8.73;5.38;;;19.10;70.00;;;20.42;53.15;97974.25;5029201;28;20057;-62
2023/09/07 07:05:36;;;;;;;9.40;6.30;;;19.10;70.00;;;20.45;53.11;97976.50;5029350;28;20037;-62
2023/09/07 07:08:04;;;;;;;6.65;5.32;;;19.10;69.60;;;20.46;52.93;97972.78;5019866;28;20049;-61
2023/09/07 07:10:31;;;;;;;10.73;5.70;;;19.20;69.70;;;20.49;53.26;97980.47;5025066;28;20049;-61
2023/09/07 07:12:59;;;;;;;9.55;5.80;;;19.20;69.60;;;20.52;53.25;97982.72;5004696;28;20053;-61
2023/09/07 07:15:27;;;;;;;7.80;5.93;;;19.20;69.70;;;20.54;53.37;97983.31;5030459;28;20049;-62
2023/09/07 07:17:55;;;;;;;7.05;5.93;;;19.30;70.10;;;20.59;53.46;97988.09;5028748;28;20057;-61
2023/09/07 07:20:23;;;;;;;8.40;6.72;;;19.30;70.20;;;20.63;53.33;97978.53;5007193;28;20049;-61
2023/09/07 07:22:51;;;;;;;9.07;6.80;;;19.40;70.10;;;20.67;53.35;97989.75;5020908;28;20068;-61
2023/09/07 07:25:28;;;;;;;11.95;6.57;;;19.40;70.20;;;20.70;53.18;97990.13;5004297;28;20048;-61
2023/09/07 07:27:56;;;;;;;9.38;7.13;;;19.40;70.80;;;20.73;53.75;97984.28;5014840;27;20053;-62
2023/09/07 07:30:29;;;;;;;11.57;8.85;;;19.50;71.10;;;20.78;53.85;97989.03;5024510;28;20408;-61
2023/09/07 07:32:57;;;;;;;9.18;8.18;;;19.50;71.10;;;20.78;53.60;97981.78;5000907;28;20049;-62
2023/09/07 07:35:25;;;;;;;10.15;7.55;;;19.60;70.80;;;20.79;53.65;97988.81;5007440;28;20421;-61
2023/09/07 07:37:53;;;;;;;8.30;7.30;;;19.60;71.00;;;20.84;53.66;97983.59;5023527;28;20042;-62
2023/09/07 07:40:21;;;;;;;9.63;7.65;;;19.60;71.00;;;20.89;53.66;97979.41;5025473;28;20072;-61
2023/09/07 07:42:52;;;;;;;8.88;7.78;;;19.60;71.00;;;20.93;53.49;97978.72;5023764;28;20056;-62
2023/09/07 07:45:21;;;;;;;12.15;8.65;;;19.60;70.80;;;20.98;53.78;97978.09;5078578;28;20046;-61
2023/09/07 07:47:54;;;;;;;10.73;8.18;;;19.70;71.00;;;21.02;53.65;97982.00;5027990;28;20060;-67
2023/09/07 07:50:21;;;;;;;8.60;7.30;;;19.70;71.30;;;21.05;53.61;97973.44;5016641;28;20436;-67
2023/09/07 07:52:49;;;;;;;9.68;8.68;;;19.70;71.00;;;21.10;53.57;97979.03;5014578;28;20041;-62
2023/09/07 07:55:17;;;;;;;10.13;7.75;;;19.80;70.70;;;21.13;53.45;97983.16;5017681;28;20045;-67
2023/09/07 07:57:45;;;;;;;9.90;8.25;;;19.90;70.60;;;21.17;53.36;97971.69;5025896;28;20050;-66
2023/09/07 08:00:14;;;;;;;10.05;8.32;;;19.90;70.60;;;21.20;53.48;97970.41;5019348;28;20288;-67
2023/09/07 08:02:48;;;;;;;10.80;7.90;;;19.90;70.50;;;21.24;53.34;97975.16;4996787;28;20045;-68
2023/09/07 08:05:17;;;;;;;10.82;8.20;;;20.00;70.30;;;21.28;53.58;97975.53;5018987;28;20050;-68
2023/09/07 08:07:44;;;;;;;8.50;7.05;;;20.00;70.60;;;21.32;53.08;97965.91;5019616;28;20496;-67
2023/09/07 08:10:12;;;;;;;11.90;8.23;;;20.10;70.10;;;21.36;53.44;97969.00;5032692;28;20077;-73
2023/09/07 08:12:40;;;;;;;8.93;7.78;;;20.10;70.10;;;21.39;53.32;97969.41;5007153;28;20045;-73
2023/09/07 08:15:08;;;;;;;10.20;7.32;;;20.20;69.90;;;21.43;53.16;97967.91;5003771;28;20441;-73
2023/09/07 08:17:36;;;;;;;9.20;7.65;;;20.20;69.50;;;21.47;53.13;97970.19;5027470;28;20052;-74
2023/09/07 08:20:07;;;;;;;11.10;6.85;;;20.30;69.80;;;21.50;52.92;97977.84;5016852;28;20057;-74
2023/09/07 08:22:36;;;;;;;8.07;6.70;;;20.30;69.20;;;21.50;52.81;97973.28;5027514;28;20053;-73
2023/09/07 08:25:05;;;;;;;12.25;8.27;;;20.30;68.90;;;21.54;52.79;97968.22;5017428;28;20046;-74
2023/09/07 08:27:33;;;;;;;8.80;7.18;;;20.40;68.60;;;21.57;52.45;97965.91;5021867;28;20045;-73
2023/09/07 08:30:01;;;;;;;8.93;7.82;;;20.40;68.50;;;21.61;52.65;97972.53;5017703;28;20420;-73
2023/09/07 08:32:28;;;;;;;8.68;7.15;;;20.40;68.50;;;21.66;52.59;97973.75;5018018;28;20048;-73
2023/09/07 08:35:00;;;;;;;10.57;7.10;;;20.50;68.30;;;21.69;52.36;97968.69;5015431;28;20045;-73
2023/09/07 08:37:29;;;;;;;11.35;8.02;;;20.50;68.30;;;21.76;52.16;97969.47;5019217;28;20554;-74
2023/09/07 08:39:57;;;;;;;9.20;8.23;;;20.60;68.00;;;21.82;52.19;97973.97;5022868;28;20042;-73
2023/09/07 08:42:25;;;;;;;9.70;7.50;;;20.60;67.80;;;21.85;52.64;97974.56;5021356;28;20407;-74
2023/09/07 08:44:58;;;;;;;8.48;6.65;;;20.70;67.90;;;21.90;51.88;97980.97;5021427;28;20069;-73
2023/09/07 08:47:29;;;;;;;10.05;7.55;;;20.70;67.50;;;21.95;52.29;97980.31;5022703;28;20480;-73
2023/09/07 08:49:58;;;;;;;11.07;8.13;;;20.70;67.50;;;21.99;52.15;97978.81;5022584;28;20406;-74
2023/09/07 08:52:25;;;;;;;7.15;6.45;;;20.80;67.20;;;22.02;51.93;97976.47;5024141;28;20041;-72
2023/09/07 08:54:55;;;;;;;10.80;7.63;;;20.90;67.40;;;22.08;51.89;97980.16;5023154;28;20520;-73
2023/09/07 08:57:22;;;;;;;9.07;7.75;;;20.90;67.20;;;22.14;51.78;97975.69;5022489;28;20061;-73
2023/09/07 08:59:50;;;;;;;9.07;7.00;;;21.00;66.80;;;22.17;51.65;97973.34;5022536;28;20416;-73
2023/09/07 09:02:17;;;;;;;8.45;6.97;;;21.00;66.50;;;22.22;51.67;97978.13;5022612;28;20045;-73
2023/09/07 09:04:45;;;;;;;8.65;7.75;;;21.10;66.70;;;22.26;51.22;97976.63;5021840;28;21111;-73
2023/09/07 09:07:13;;;;;;;10.07;7.82;;;21.10;66.30;;;22.31;51.09;97976.75;5022664;28;20485;-73
2023/09/07 09:09:40;;;;;;;11.43;10.07;;;21.20;66.10;;;22.35;51.29;97980.69;5022290;28;20042;-73
2023/09/07 09:12:11;;;;;;;12.00;9.30;;;21.20;65.70;;;22.37;51.33;97975.88;5022424;28;20045;-73
2023/09/07 09:14:46;;;;;;;8.70;7.78;;;21.20;65.80;;;22.43;50.95;97982.25;5001023;28;20068;-73
2023/09/07 09:17:15;;;;;;;7.85;6.90;;;21.30;65.70;;;22.48;51.07;97984.28;5014566;28;20076;-73
2023/09/07 09:19:43;;;;;;;7.55;6.65;;;21.40;65.50;;;22.52;51.11;97980.03;5021876;28;20068;-73
2023/09/07 09:22:11;;;;;;;10.07;8.60;;;21.40;65.60;;;22.56;50.95;97975.81;5017921;28;20046;-73
2023/09/07 09:24:39;;;;;;;10.45;8.27;;;21.40;65.30;;;22.59;50.89;97973.47;5034376;28;20042;-73
2023/09/07 09:27:07;;;;;;;9.30;6.93;;;21.40;65.00;;;22.63;50.73;97965.69;5031026;28;20049;-73
2023/09/07 09:29:35;;;;;;;7.93;6.63;;;21.50;66.20;;;22.68;50.63;97975.84;5020661;28;20413;-73
2023/09/07 09:32:07;;;;;;;10.70;6.80;;;21.50;65.30;;;22.72;50.68;97964.31;5022240;28;20060;-73
2023/09/07 09:34:36;;;;;;;8.77;6.82;;;21.60;65.10;;;22.79;50.41;97969.63;5018580;28;20163;-73
2023/09/07 09:37:04;;;;;;;7.95;6.90;;;21.70;65.10;;;22.85;50.38;97970.59;5017200;28;20405;-73
2023/09/07 09:39:32;;;;;;;10.50;6.60;;;21.70;64.60;;;22.88;50.10;97972.84;5016708;28;20504;-74
2023/09/07 09:41:59;;;;;;;9.02;7.45;;;21.70;64.60;;;22.93;50.09;97962.94;5021355;28;20057;-73
2023/09/07 09:44:29;;;;;;;9.25;6.50;;;21.80;64.40;;;22.96;50.46;97962.47;5023551;28;20072;-73
2023/09/07 09:46:58;;;;;;;8.52;6.85;;;21.80;64.30;;;23.01;50.16;97964.47;5020368;28;20037;-73
2023/09/07 09:49:27;;;;;;;9.60;7.43;;;21.90;64.40;;;23.07;50.13;97965.47;5016060;28;20049;-73
2023/09/07 09:51:58;;;;;;;10.85;7.28;;;21.90;65.10;;;23.13;50.03;97959.94;5016635;28;20045;-73
2023/09/07 09:54:27;;;;;;;9.88;6.95;;;22.00;64.20;;;23.16;49.97;97958.63;5019265;28;20045;-69
2023/09/07 09:56:55;;;;;;;7.80;7.00;;;22.00;64.00;;;23.21;49.99;97960.66;5019048;28;20048;-71
2023/09/07 09:59:23;;;;;;;8.93;6.13;;;22.10;64.20;;;23.25;50.14;97965.38;5017634;28;20050;-72
2023/09/07 10:01:54;;;;;;;7.32;6.63;;;22.10;64.10;;;23.30;50.13;97962.78;5014833;28;20061;-72
2023/09/07 10:04:22;;;;;;;9.07;7.07;;;22.20;64.10;;;23.35;50.10;97954.75;5017396;28;20045;-72
2023/09/07 10:07:01;;;;;;;7.05;6.10;;;22.30;64.00;;;23.41;50.12;97954.88;5018886;28;20038;-73
2023/09/07 10:09:33;;;;;;;7.63;6.53;;;22.30;63.60;;;23.46;49.83;97955.81;5003558;28;20045;-62
2023/09/07 10:12:04;;;;;;;7.87;6.40;;;22.40;63.60;;;23.52;49.89;97957.59;5021998;28;20045;-62
2023/09/07 10:14:40;;;;;;;8.73;6.90;;;22.40;63.60;;;23.57;49.73;97960.44;5018094;28;20045;-62
2023/09/07 10:17:09;;;;;;;7.55;6.47;;;22.50;63.20;;;23.62;49.32;97961.59;5018717;28;20052;-61
2023/09/07 10:19:39;;;;;;;8.75;6.18;;;22.50;63.00;;;23.66;49.25;97947.28;5018784;28;20045;-62
2023/09/07 10:22:07;;;;;;;8.32;6.55;;;22.60;62.90;;;23.73;49.39;97947.16;5018603;28;20504;-61
2023/09/07 10:24:39;;;;;;;11.55;8.23;;;22.60;62.90;;;23.78;49.62;97948.13;5027021;28;20034;-62